createdAt,value
2019-02-05T00:01:48.850Z,100031.14
2019-02-05T00:04:19.148Z,100023.73
2019-02-05T00:06:49.511Z,100029.83
2019-02-05T00:09:19.755Z,100027.42
2019-02-05T00:11:49.977Z,100021.39
2019-02-05T00:14:20.352Z,100022.70
2019-02-05T00:16:50.600Z,100029.08
2019-02-05T00:19:20.971Z,100021.39
2019-02-05T00:21:51.206Z,100021.81
2019-02-05T00:24:21.440Z,100014.75
2019-02-05T00:26:51.778Z,100015.75
2019-02-05T00:29:22.149Z,100017.24
2019-02-05T00:31:52.353Z,100016.85
2019-02-05T00:34:22.621Z,100012.25
2019-02-05T00:36:52.898Z,100011.53
2019-02-05T00:39:24.178Z,100006.92
2019-02-05T00:41:54.764Z,100010.44
2019-02-05T00:44:25.016Z,99998.31
2019-02-05T00:46:55.208Z,100012.78
2019-02-05T00:49:25.439Z,100010.74
2019-02-05T00:51:56.734Z,100010.63
2019-02-05T00:54:26.986Z,100009.02
2019-02-05T00:56:57.265Z,100010.05
2019-02-05T00:59:27.482Z,100004.38
2019-02-05T01:01:58.094Z,99996.55
2019-02-05T01:04:28.301Z,100001.45
2019-02-05T01:06:59.866Z,99995.42
2019-02-05T01:09:30.401Z,100003.94
2019-02-05T01:12:00.762Z,100005.55
2019-02-05T01:14:31.169Z,100000.70
2019-02-05T01:17:01.503Z,100008.34
2019-02-05T01:19:31.713Z,100006.80
2019-02-05T01:22:01.962Z,100020.14
2019-02-05T01:24:32.193Z,100020.51
2019-02-05T01:27:02.458Z,100019.57
2019-02-05T01:29:33.384Z,100013.32
2019-02-05T01:32:03.609Z,100007.48
2019-02-05T01:34:33.831Z,99998.29
2019-02-05T01:37:04.117Z,99986.69
2019-02-05T01:39:34.286Z,99977.56
2019-02-05T01:42:04.475Z,99973.36
2019-02-05T01:44:34.689Z,99966.84
2019-02-05T01:47:05.291Z,99963.91
2019-02-05T01:49:36.010Z,99957.20
2019-02-05T01:52:06.459Z,99964.78
2019-02-05T01:54:36.683Z,99959.61
2019-02-05T01:57:06.927Z,99959.67
2019-02-05T01:59:37.180Z,99957.95
2019-02-05T02:02:07.675Z,99957.45
2019-02-05T02:04:38.064Z,99948.77
2019-02-05T02:07:08.849Z,99947.07
2019-02-05T02:09:39.151Z,99950.42
2019-02-05T02:12:09.415Z,99962.41
2019-02-05T02:14:39.633Z,99959.43
2019-02-05T02:17:10.218Z,99957.23
2019-02-05T02:19:40.496Z,99957.89
2019-02-05T02:22:10.691Z,99953.64
2019-02-05T02:24:40.957Z,99948.59
2019-02-05T02:27:11.160Z,99951.11
2019-02-05T02:29:41.377Z,99953.15
2019-02-05T02:32:11.886Z,99948.50
2019-02-05T02:34:42.131Z,99951.20
2019-02-05T02:37:12.329Z,99947.81
2019-02-05T02:39:42.693Z,99947.93
2019-02-05T02:42:12.912Z,99940.03
2019-02-05T02:44:43.196Z,99945.97
2019-02-05T02:47:13.396Z,99940.99
2019-02-05T02:49:43.603Z,99935.36
2019-02-05T02:52:13.824Z,99927.74
2019-02-05T02:54:44.093Z,99924.30
2019-02-05T02:57:14.310Z,99924.05
2019-02-05T02:59:44.798Z,99923.75
2019-02-05T03:02:15.265Z,99922.45
2019-02-05T03:04:45.523Z,99923.51
2019-02-05T03:07:15.869Z,99916.45
2019-02-05T03:09:46.120Z,99905.98
2019-02-05T03:12:16.310Z,99914.28
2019-02-05T03:14:46.864Z,99922.86
2019-02-05T03:17:17.075Z,99920.17
2019-02-05T03:19:47.253Z,99923.16
2019-02-05T03:22:17.519Z,99928.80
2019-02-05T03:24:47.744Z,99927.77
2019-02-05T03:27:18.542Z,99919.89
2019-02-05T03:29:48.861Z,99918.81
2019-02-05T03:32:19.337Z,99922.92
2019-02-05T03:34:49.543Z,99920.67
2019-02-05T03:37:20.941Z,99909.64
2019-02-05T03:39:51.166Z,99905.97
2019-02-05T03:42:21.443Z,99912.60
2019-02-05T03:44:51.654Z,99910.98
2019-02-05T03:47:21.936Z,99919.18
2019-02-05T03:49:52.951Z,99914.66
2019-02-05T03:52:29.668Z,99920.35
2019-02-05T03:55:27.883Z,99918.04
2019-02-05T03:58:20.187Z,99925.09
2019-02-05T04:01:30.092Z,99919.47
2019-02-05T04:04:28.458Z,99926.39
2019-02-05T04:07:30.684Z,99920.92
2019-02-05T04:10:46.184Z,99924.95
2019-02-05T04:13:52.174Z,99922.02
2019-02-05T04:16:49.856Z,99926.58
2019-02-05T04:20:04.109Z,99926.92
2019-02-05T04:23:09.944Z,99920.64
2019-02-05T04:26:26.517Z,99925.91
2019-02-05T04:29:27.830Z,99926.72
2019-02-05T04:32:54.213Z,99933.17
2019-02-05T04:36:01.266Z,99926.98
2019-02-05T04:39:15.201Z,99942.69
2019-02-05T04:42:20.459Z,99950.35
2019-02-05T04:45:34.094Z,99943.14
2019-02-05T04:48:45.218Z,99935.23
2019-02-05T04:52:08.277Z,99938.33
2019-02-05T04:55:31.447Z,99936.67
2019-02-05T04:58:51.815Z,99939.98
2019-02-05T05:01:43.320Z,99931.11
2019-02-05T05:04:50.259Z,99943.19
2019-02-05T05:07:48.485Z,99950.42
2019-02-05T05:10:18.719Z,99951.34
2019-02-05T05:12:48.932Z,99947.20
2019-02-05T05:15:19.352Z,99954.23
2019-02-05T05:17:49.609Z,99951.28
2019-02-05T05:20:19.897Z,99953.52
2019-02-05T05:22:50.943Z,99957.63
2019-02-05T05:25:21.493Z,99953.20
2019-02-05T05:27:54.891Z,99969.77
2019-02-05T05:30:25.232Z,99960.23
2019-02-05T05:32:55.448Z,99964.72
2019-02-05T05:35:27.100Z,99968.56
2019-02-05T05:37:57.920Z,99964.58
2019-02-05T05:40:28.123Z,99970.94
2019-02-05T05:42:58.373Z,99960.48
2019-02-05T05:45:28.687Z,99970.94
2019-02-05T05:47:58.901Z,99971.17
2019-02-05T05:50:29.468Z,99975.25
2019-02-05T05:52:59.717Z,99980.59
2019-02-05T05:55:29.913Z,99974.84
2019-02-05T05:58:00.313Z,99965.98
2019-02-05T06:00:30.495Z,99958.65
2019-02-05T06:03:00.670Z,99963.36
2019-02-05T06:05:31.663Z,99970.16
2019-02-05T06:08:01.912Z,99968.00
2019-02-05T06:10:32.153Z,99966.94
2019-02-05T06:13:02.381Z,99962.31
2019-02-05T06:15:32.571Z,99953.84
2019-02-05T06:18:02.895Z,99954.76
2019-02-05T06:20:34.861Z,99943.88
2019-02-05T06:23:05.076Z,99946.90
2019-02-05T06:25:35.307Z,99943.34
2019-02-05T06:28:05.824Z,99933.69
2019-02-05T06:30:36.121Z,99932.84
2019-02-05T06:33:08.706Z,99943.47
2019-02-05T06:35:39.278Z,99943.99
2019-02-05T06:38:09.521Z,99944.22
2019-02-05T06:40:39.689Z,99941.34
2019-02-05T06:43:10.981Z,99945.41
2019-02-05T06:45:41.796Z,99949.14
2019-02-05T06:48:12.256Z,99947.22
2019-02-05T06:50:43.206Z,99943.06
2019-02-05T06:53:13.872Z,99939.36
2019-02-05T06:55:44.076Z,99933.47
2019-02-05T06:58:14.324Z,99929.09
2019-02-05T07:00:44.729Z,99937.98
2019-02-05T07:03:15.450Z,99934.22
2019-02-05T07:05:46.007Z,99939.86
2019-02-05T07:08:16.263Z,99936.36
2019-02-05T07:10:46.509Z,99941.89
2019-02-05T07:13:16.826Z,99942.19
2019-02-05T07:15:47.147Z,99935.47
2019-02-05T07:18:17.769Z,99946.42
2019-02-05T07:20:48.041Z,99944.98
2019-02-05T07:23:18.288Z,99933.77
2019-02-05T07:25:48.723Z,99946.29
2019-02-05T07:28:19.020Z,99940.81
2019-02-05T07:30:49.564Z,99937.75
2019-02-05T07:33:20.442Z,99948.72
2019-02-05T07:35:50.737Z,99947.91
2019-02-05T07:38:21.091Z,99952.77
2019-02-05T07:40:52.414Z,99951.47
2019-02-05T07:43:22.742Z,99950.91
2019-02-05T07:45:53.049Z,99949.61
2019-02-05T07:48:23.460Z,99942.81
2019-02-05T07:50:53.740Z,99941.57
2019-02-05T07:53:24.024Z,99941.77
2019-02-05T07:55:54.360Z,99941.28
2019-02-05T07:58:24.658Z,99944.92
2019-02-05T08:00:54.974Z,99945.54
2019-02-05T08:03:25.187Z,99941.69
2019-02-05T08:05:56.146Z,99939.81
2019-02-05T08:08:26.613Z,99934.16
2019-02-05T08:10:56.929Z,99925.97
2019-02-05T08:13:27.393Z,99929.47
2019-02-05T08:15:57.780Z,99936.46
2019-02-05T08:18:28.149Z,99928.73
2019-02-05T08:20:58.525Z,99935.25
2019-02-05T08:23:29.559Z,99941.35
2019-02-05T08:25:59.957Z,99936.11
2019-02-05T08:28:40.633Z,99932.61
2019-02-05T08:31:02.479Z,99941.44
2019-02-05T08:33:32.723Z,99939.53
2019-02-05T08:36:04.826Z,99948.40
2019-02-05T08:38:35.125Z,99947.20
2019-02-05T08:41:06.484Z,99951.02
2019-02-05T08:43:37.000Z,99961.48
2019-02-05T08:46:08.590Z,99968.23
2019-02-05T08:48:38.938Z,99965.28
2019-02-05T08:51:09.311Z,99960.05
2019-02-05T08:53:42.820Z,99965.39
2019-02-05T08:56:17.262Z,99962.98
2019-02-05T08:58:52.967Z,99958.25
2019-02-05T09:01:29.756Z,99960.06
2019-02-05T09:04:00.481Z,99972.24
2019-02-05T09:06:35.436Z,99971.94
2019-02-05T09:09:09.804Z,99969.63
2019-02-05T09:11:41.012Z,99967.30
2019-02-05T09:14:47.362Z,99964.72
2019-02-05T09:17:07.334Z,99962.03
2019-02-05T09:19:37.951Z,99968.63
2019-02-05T09:22:08.370Z,99959.28
2019-02-05T09:24:53.964Z,99961.27
2019-02-05T09:27:24.312Z,99966.12
2019-02-05T09:30:05.342Z,99966.50
2019-02-05T09:32:35.628Z,99967.03
2019-02-05T09:35:07.014Z,99971.36
2019-02-05T09:37:37.338Z,99969.29
2019-02-05T09:40:10.282Z,99965.12
2019-02-05T09:42:40.680Z,99961.13
2019-02-05T09:45:12.819Z,99968.52
2019-02-05T09:47:43.621Z,99969.58
2019-02-05T09:50:14.962Z,99982.81
2019-02-05T09:52:45.543Z,99979.88
2019-02-05T09:55:16.332Z,99987.84
2019-02-05T09:57:46.740Z,99974.05
2019-02-05T10:00:19.961Z,99979.07
2019-02-05T10:02:50.450Z,99984.86
2019-02-05T10:05:22.950Z,99989.65
2019-02-05T10:07:53.760Z,99989.27
2019-02-05T10:10:24.304Z,99994.00
2019-02-05T10:12:55.512Z,99986.16
2019-02-05T10:15:28.466Z,99987.61
2019-02-05T10:17:58.706Z,99993.09
2019-02-05T10:20:29.240Z,99992.64
2019-02-05T10:23:02.670Z,99992.44
2019-02-05T10:25:32.969Z,99983.59
2019-02-05T10:28:03.210Z,99993.17
2019-02-05T10:30:36.006Z,99992.29
2019-02-05T10:33:07.409Z,99992.44
2019-02-05T10:35:37.679Z,99989.48
2019-02-05T10:38:08.246Z,99985.56
2019-02-05T10:40:38.685Z,99976.29
2019-02-05T10:43:09.083Z,99985.95
2019-02-05T10:45:39.624Z,99984.56
2019-02-05T10:48:11.092Z,99983.52
2019-02-05T10:50:41.560Z,99979.95
2019-02-05T10:53:11.805Z,99978.05
2019-02-05T10:55:42.209Z,99973.39
2019-02-05T10:58:22.113Z,99967.62
2019-02-05T11:01:13.780Z,99974.47
2019-02-05T11:03:59.714Z,99978.56
2019-02-05T11:06:43.158Z,99984.33
2019-02-05T11:09:38.389Z,99983.67
2019-02-05T11:12:17.256Z,99982.28
2019-02-05T11:14:49.187Z,99978.57
2019-02-05T11:17:19.669Z,99977.25
2019-02-05T11:19:49.944Z,99977.48
2019-02-05T11:22:20.868Z,99978.49
2019-02-05T11:24:52.147Z,99985.63
2019-02-05T11:27:22.461Z,99980.31
2019-02-05T11:29:56.003Z,99977.23
2019-02-05T11:32:27.675Z,99985.14
2019-02-05T11:34:57.915Z,99975.05
2019-02-05T11:37:28.465Z,99981.69
2019-02-05T11:39:58.718Z,99983.19
2019-02-05T11:42:29.470Z,99976.97
2019-02-05T11:44:59.694Z,99986.14
2019-02-05T11:47:30.283Z,99982.20
2019-02-05T11:50:00.806Z,99981.03
2019-02-05T11:52:32.364Z,99979.53
2019-02-05T11:55:02.919Z,99983.48
2019-02-05T11:57:33.673Z,99980.84
2019-02-05T12:00:04.220Z,99977.15
2019-02-05T12:02:36.847Z,99984.23
2019-02-05T12:05:07.503Z,99990.53
2019-02-05T12:07:37.858Z,99982.39
2019-02-05T12:10:10.203Z,99988.97
2019-02-05T12:12:40.673Z,99987.02
2019-02-05T12:15:12.069Z,99975.02
2019-02-05T12:17:42.489Z,99973.42
2019-02-05T12:20:14.053Z,99969.50
2019-02-05T12:22:44.659Z,99976.06
2019-02-05T12:25:16.243Z,99973.73
2019-02-05T12:27:46.676Z,99968.05
2019-02-05T12:30:24.045Z,99968.02
2019-02-05T12:32:54.817Z,99962.63
2019-02-05T12:35:25.095Z,99966.73
2019-02-05T12:37:55.753Z,99964.74
2019-02-05T12:40:26.583Z,99965.20
2019-02-05T12:42:57.180Z,99967.69
2019-02-05T12:45:29.261Z,99966.36
2019-02-05T12:48:00.127Z,99962.92
2019-02-05T12:50:32.531Z,99960.19
2019-02-05T12:53:03.247Z,99962.42
2019-02-05T12:55:33.633Z,99950.23
2019-02-05T12:58:04.313Z,99949.70
2019-02-05T13:00:37.804Z,99951.28
2019-02-05T13:03:10.483Z,99951.88
2019-02-05T13:05:42.554Z,99953.44
2019-02-05T13:08:12.949Z,99958.77
2019-02-05T13:10:45.449Z,99958.27
2019-02-05T13:13:18.172Z,99952.27
2019-02-05T13:15:48.221Z,99954.77
2019-02-05T13:18:19.839Z,99948.92
2019-02-05T13:20:51.201Z,99942.91
2019-02-05T13:23:21.806Z,99947.67
2019-02-05T13:25:52.011Z,99945.10
2019-02-05T13:28:22.550Z,99946.28
2019-02-05T13:30:52.759Z,99942.27
2019-02-05T13:33:23.473Z,99951.04
2019-02-05T13:35:55.563Z,99949.88
2019-02-05T13:38:25.931Z,99950.13
2019-02-05T13:40:56.514Z,99951.16
2019-02-05T13:43:26.902Z,99954.75
2019-02-05T13:45:57.431Z,99950.65
2019-02-05T13:48:28.050Z,99951.80
2019-02-05T13:50:58.337Z,99964.00
2019-02-05T13:53:28.640Z,99958.34
2019-02-05T13:55:58.911Z,99956.78
2019-02-05T13:58:30.715Z,99955.27
2019-02-05T14:01:01.020Z,99964.53
2019-02-05T14:03:31.322Z,99961.20
2019-02-05T14:06:01.573Z,99956.95
2019-02-05T14:08:31.940Z,99964.84
2019-02-05T14:11:02.568Z,99962.58
2019-02-05T14:13:33.274Z,99966.80
2019-02-05T14:16:06.244Z,99966.31
2019-02-05T14:18:36.567Z,99966.73
2019-02-05T14:21:06.830Z,99959.55
2019-02-05T14:23:37.192Z,99968.28
2019-02-05T14:26:07.768Z,99969.15
2019-02-05T14:28:39.512Z,99973.14
2019-02-05T14:31:10.045Z,99965.78
2019-02-05T14:33:40.337Z,99968.00
2019-02-05T14:36:10.767Z,99969.67
2019-02-05T14:38:41.416Z,99973.46
2019-02-05T14:41:11.883Z,99978.05
2019-02-05T14:43:45.467Z,99979.25
2019-02-05T14:46:18.490Z,99982.75
2019-02-05T14:49:00.519Z,99977.20
2019-02-05T14:51:31.906Z,99984.55
2019-02-05T14:54:12.583Z,99982.94
2019-02-05T14:57:06.295Z,99986.75
2019-02-05T14:59:52.026Z,99982.44
2019-02-05T15:02:23.019Z,99981.53
2019-02-05T15:05:03.594Z,99984.55
2019-02-05T15:07:37.508Z,99984.98
2019-02-05T15:10:09.949Z,99987.19
2019-02-05T15:12:45.499Z,99996.30
2019-02-05T15:15:18.321Z,99991.70
2019-02-05T15:17:49.111Z,99992.59
2019-02-05T15:20:31.174Z,99995.15
2019-02-05T15:23:02.183Z,99994.03
2019-02-05T15:25:36.805Z,99990.08
2019-02-05T15:28:11.742Z,99993.75
2019-02-05T15:30:54.871Z,99995.34
2019-02-05T15:33:45.708Z,99995.30
2019-02-05T15:36:35.349Z,99994.11
2019-02-05T15:39:12.551Z,99994.34
2019-02-05T15:41:43.049Z,99993.45
2019-02-05T15:44:13.672Z,99997.70
2019-02-05T15:46:44.003Z,100000.39
2019-02-05T15:49:14.214Z,100004.04
2019-02-05T15:51:44.629Z,100012.48
2019-02-05T15:54:14.919Z,100012.69
2019-02-05T15:56:46.168Z,100019.38
2019-02-05T15:59:16.654Z,100018.86
2019-02-05T16:01:46.983Z,100026.52
2019-02-05T16:04:17.347Z,100022.75
2019-02-05T16:06:47.800Z,100021.10
2019-02-05T16:09:18.143Z,100015.42
2019-02-05T16:11:50.384Z,100022.20
2019-02-05T16:14:21.071Z,100029.17
2019-02-05T16:16:51.332Z,100029.31
2019-02-05T16:19:21.597Z,100030.87
2019-02-05T16:21:51.936Z,100033.86
2019-02-05T16:24:23.233Z,100037.05
2019-02-05T16:26:54.582Z,100032.84
2019-02-05T16:29:25.008Z,100033.16
2019-02-05T16:31:55.260Z,100038.78
2019-02-05T16:34:25.600Z,100039.16
2019-02-05T16:36:55.906Z,100041.38
2019-02-05T16:39:26.587Z,100045.05
2019-02-05T16:41:56.857Z,100044.45
2019-02-05T16:44:27.264Z,100038.08
2019-02-05T16:46:57.515Z,100037.98
2019-02-05T16:49:27.925Z,100046.49
2019-02-05T16:51:58.491Z,100049.71
2019-02-05T16:54:28.767Z,100051.66
2019-02-05T16:56:59.051Z,100050.63
2019-02-05T16:59:29.335Z,100054.52
2019-02-05T17:02:00.581Z,100059.57
2019-02-05T17:04:31.027Z,100060.35
2019-02-05T17:07:01.644Z,100061.75
2019-02-05T17:09:33.982Z,100068.63
2019-02-05T17:12:04.419Z,100070.02
2019-02-05T17:14:34.999Z,100070.89
2019-02-05T17:17:05.254Z,100076.71
2019-02-05T17:19:35.483Z,100079.72
2019-02-05T17:22:06.218Z,100077.87
2019-02-05T17:24:36.570Z,100078.94
2019-02-05T17:27:07.073Z,100084.26
2019-02-05T17:29:37.320Z,100088.42
2019-02-05T17:32:07.939Z,100089.69
2019-02-05T17:34:38.532Z,100080.73
2019-02-05T17:37:08.753Z,100084.69
2019-02-05T17:39:41.018Z,100084.13
2019-02-05T17:42:11.440Z,100082.90
2019-02-05T17:45:40.225Z,100081.50
2019-02-05T17:49:06.600Z,100082.70
2019-02-05T17:51:37.202Z,100081.92
2019-02-05T17:54:07.774Z,100078.73
2019-02-05T17:56:38.180Z,100072.95
2019-02-05T17:59:08.447Z,100075.80
2019-02-05T18:01:39.022Z,100087.94
2019-02-05T18:04:09.374Z,100089.61
2019-02-05T18:06:39.609Z,100084.36
2019-02-05T18:09:10.859Z,100090.84
2019-02-05T18:11:41.148Z,100095.94
2019-02-05T18:14:11.409Z,100101.95
2019-02-05T18:16:42.006Z,100106.23
2019-02-05T18:19:12.288Z,100112.14
2019-02-05T18:21:42.811Z,100115.44
2019-02-05T18:24:13.122Z,100103.59
2019-02-05T18:26:43.375Z,100107.27
2019-02-05T18:29:13.637Z,100118.74
2019-02-05T18:31:43.914Z,100120.47
2019-02-05T18:34:14.883Z,100118.61
2019-02-05T18:36:46.081Z,100116.48
2019-02-05T18:39:16.321Z,100118.74
2019-02-05T18:41:46.558Z,100115.02
2019-02-05T18:44:16.914Z,100115.55
2019-02-05T18:46:47.210Z,100109.59
2019-02-05T18:49:17.893Z,100113.51
2019-02-05T18:51:48.134Z,100114.79
2019-02-05T18:54:18.399Z,100109.70
2019-02-05T18:56:48.813Z,100105.56
2019-02-05T18:59:19.178Z,100108.95
2019-02-05T19:01:49.429Z,100121.56
2019-02-05T19:04:19.913Z,100111.63
2019-02-05T19:06:51.470Z,100111.47
2019-02-05T19:09:21.905Z,100109.20
2019-02-05T19:11:52.124Z,100114.13
2019-02-05T19:14:23.331Z,100116.44
2019-02-05T19:16:54.437Z,100113.37
2019-02-05T19:19:24.715Z,100118.84
2019-02-05T19:21:54.920Z,100111.55
2019-02-05T19:24:53.128Z,100113.14
2019-02-05T19:27:24.377Z,100116.61
2019-02-05T19:29:55.862Z,100128.92
2019-02-05T19:32:29.443Z,100121.77
2019-02-05T19:35:00.715Z,100125.17
2019-02-05T19:37:33.701Z,100131.61
2019-02-05T19:40:07.217Z,100126.39
2019-02-05T19:42:37.486Z,100128.73
2019-02-05T19:45:34.603Z,100134.25
2019-02-05T19:48:07.621Z,100131.37
2019-02-05T19:50:39.160Z,100138.09
2019-02-05T19:53:10.426Z,100137.41
2019-02-05T19:55:40.787Z,100136.14
2019-02-05T19:58:11.592Z,100138.52
2019-02-05T20:00:43.965Z,100138.94
2019-02-05T20:03:14.702Z,100132.83
2019-02-05T20:05:44.953Z,100141.34
2019-02-05T20:08:15.168Z,100141.44
2019-02-05T20:10:46.897Z,100143.56
2019-02-05T20:13:18.290Z,100142.48
2019-02-05T20:15:51.262Z,100142.34
2019-02-05T20:18:21.907Z,100145.78
2019-02-05T20:20:52.189Z,100148.27
2019-02-05T20:23:22.405Z,100146.73
2019-02-05T20:25:52.746Z,100143.84
2019-02-05T20:28:23.219Z,100143.73
2019-02-05T20:30:56.062Z,100141.30
2019-02-05T20:33:27.891Z,100141.66
2019-02-05T20:35:58.472Z,100138.07
2019-02-05T20:38:30.551Z,100142.46
2019-02-05T20:41:02.331Z,100140.14
2019-02-05T20:43:34.798Z,100148.49
2019-02-05T20:46:05.407Z,100154.92
2019-02-05T20:48:35.607Z,100148.50
2019-02-05T20:51:05.939Z,100146.55
2019-02-05T20:53:37.532Z,100143.47
2019-02-05T20:56:08.160Z,100153.93
2019-02-05T20:58:40.010Z,100149.64
2019-02-05T21:01:10.246Z,100146.55
2019-02-05T21:03:40.677Z,100144.48
2019-02-05T21:06:13.019Z,100143.47
2019-02-05T21:08:43.227Z,100142.15
2019-02-05T21:11:14.929Z,100140.98
2019-02-05T21:13:48.581Z,100142.34
2019-02-05T21:16:20.108Z,100145.50
2019-02-05T21:18:53.485Z,100147.86
2019-02-05T21:21:23.820Z,100147.23
2019-02-05T21:23:54.146Z,100147.23
2019-02-05T21:26:40.005Z,100144.83
2019-02-05T21:29:12.459Z,100143.30
2019-02-05T21:31:43.003Z,100143.38
2019-02-05T21:34:16.028Z,100137.58
2019-02-05T21:36:45.259Z,100139.72
2019-02-05T21:39:15.968Z,100136.89
2019-02-05T21:41:46.369Z,100146.00
2019-02-05T21:44:16.587Z,100141.88
2019-02-05T21:46:46.919Z,100139.13
2019-02-05T21:49:17.181Z,100141.82
2019-02-05T21:51:47.442Z,100142.08
2019-02-05T21:54:19.377Z,100149.31
2019-02-05T21:56:49.647Z,100150.03
2019-02-05T21:59:19.951Z,100147.25
2019-02-05T22:01:50.622Z,100147.48
2019-02-05T22:04:27.260Z,100144.51
2019-02-05T22:06:52.954Z,100142.51
2019-02-05T22:09:23.249Z,100141.70
2019-02-05T22:11:53.582Z,100142.95
2019-02-05T22:14:23.972Z,100147.56
2019-02-05T22:16:54.680Z,100145.94
2019-02-05T22:19:27.128Z,100144.35
2019-02-05T22:21:57.407Z,100144.70
2019-02-05T22:24:27.654Z,100144.26
2019-02-05T22:26:58.054Z,100144.07
2019-02-05T22:29:28.299Z,100147.41
2019-02-05T22:31:58.573Z,100143.38
2019-02-05T22:34:38.831Z,100149.72
2019-02-05T22:37:08.477Z,100143.06
2019-02-05T22:39:40.377Z,100138.80
2019-02-05T22:42:11.612Z,100146.41
2019-02-05T22:44:42.166Z,100144.81
2019-02-05T22:47:54.838Z,100147.75
2019-02-05T22:50:26.559Z,100151.93
2019-02-05T22:52:56.988Z,100152.35
2019-02-05T22:55:27.280Z,100155.84
2019-02-05T22:57:57.707Z,100159.30
2019-02-05T23:00:52.075Z,100154.63
2019-02-05T23:03:49.688Z,100156.80
2019-02-05T23:06:48.365Z,100156.55
2019-02-05T23:09:45.380Z,100150.54
2019-02-05T23:12:28.288Z,100151.56
2019-02-05T23:15:02.212Z,100153.92
2019-02-05T23:17:32.442Z,100150.16
2019-02-05T23:20:03.073Z,100152.22
2019-02-05T23:22:33.337Z,100155.91
2019-02-05T23:25:05.682Z,100156.42
2019-02-05T23:27:35.959Z,100156.93
2019-02-05T23:30:11.924Z,100156.84
2019-02-05T23:32:42.201Z,100156.80
2019-02-05T23:35:12.485Z,100162.86
2019-02-05T23:37:42.715Z,100156.93
2019-02-05T23:40:13.146Z,100160.95
2019-02-05T23:42:43.627Z,100156.38
2019-02-05T23:45:14.638Z,100158.14
2019-02-05T23:47:44.872Z,100154.61
2019-02-05T23:50:16.425Z,100157.83
2019-02-05T23:52:47.094Z,100156.38
2019-02-05T23:55:17.311Z,100164.30
2019-02-05T23:57:47.492Z,100160.67
